createdAt,value
2022-10-10T11:51:04.899Z,641.25
2022-10-10T11:52:28.605Z,663.75
2022-10-10T11:53:04.851Z,680.63
2022-10-10T11:54:04.836Z,680.63
2022-10-10T11:55:04.810Z,663.75
2022-10-10T11:56:04.796Z,646.88
2022-10-10T11:57:05.988Z,675.00
2022-10-10T11:58:04.775Z,675.00
2022-10-10T11:59:04.755Z,646.88
2022-10-10T12:04:39.584Z,697.50
2022-10-10T12:05:39.554Z,871.88
2022-10-10T12:06:39.583Z,1485.00
2022-10-10T12:07:39.524Z,1732.50
2022-10-10T12:08:39.515Z,1794.38
2022-10-10T12:09:39.590Z,1968.75
2022-10-10T12:10:39.476Z,2098.13
2022-10-10T12:11:39.491Z,1800.00
2022-10-10T12:12:39.452Z,1608.75
2022-10-10T12:13:39.443Z,1676.25
2022-10-10T12:14:39.549Z,1074.38
2022-10-10T12:15:42.778Z,1035.00
2022-10-10T12:16:39.419Z,1220.63
2022-10-10T12:17:39.376Z,1563.75
2022-10-10T12:18:39.372Z,1046.25
2022-10-10T12:19:39.432Z,939.38
2022-10-10T12:20:39.343Z,804.38
2022-10-10T12:21:39.322Z,742.50
2022-10-10T12:22:39.321Z,691.88
2022-10-10T12:23:39.317Z,691.88
2022-10-10T12:24:42.795Z,714.38
2022-10-10T12:25:39.270Z,787.50
2022-10-10T12:26:39.272Z,793.13
2022-10-10T12:27:39.269Z,765.00
2022-10-10T12:28:39.344Z,703.13
2022-10-10T12:29:39.226Z,725.63
2022-10-10T12:30:39.206Z,1001.25
2022-10-10T12:31:39.200Z,1108.13
2022-10-10T12:32:39.194Z,1074.38
2022-10-10T12:33:39.177Z,866.25
2022-10-10T12:34:39.158Z,1068.75
2022-10-10T12:35:39.140Z,1248.75
2022-10-10T12:36:39.129Z,1175.63
2022-10-10T12:37:39.136Z,1125.00
2022-10-10T12:38:39.106Z,950.63
2022-10-10T12:39:39.224Z,798.75
2022-10-10T12:40:39.076Z,798.75
2022-10-10T12:41:40.461Z,1113.75
2022-10-10T12:42:39.077Z,1372.50
2022-10-10T12:43:39.039Z,1434.38
2022-10-10T12:44:39.033Z,1293.75
2022-10-10T12:45:39.023Z,1316.25
2022-10-10T12:46:39.011Z,1091.25
2022-10-10T12:48:03.230Z,933.75
2022-10-10T12:48:38.975Z,894.38
2022-10-10T12:49:38.963Z,928.13
2022-10-10T12:50:38.955Z,984.38
2022-10-10T12:51:38.937Z,838.13
2022-10-10T12:52:38.926Z,883.13
2022-10-10T12:53:38.924Z,866.25
2022-10-10T12:54:38.903Z,922.50
2022-10-10T12:55:38.899Z,798.75
2022-10-10T12:56:38.878Z,770.63
2022-10-10T12:57:38.874Z,669.38
2022-10-10T12:58:38.864Z,652.50
2022-10-10T12:59:38.846Z,652.50
2022-10-10T13:00:38.839Z,635.63
2022-10-10T13:01:38.843Z,630.00
2022-10-10T13:02:38.814Z,646.88
2022-10-10T13:03:38.813Z,652.50
2022-10-10T13:04:38.787Z,686.25
2022-10-10T13:05:38.765Z,697.50
2022-10-10T13:06:38.756Z,669.38
2022-10-10T13:07:38.743Z,720.00
2022-10-10T13:08:38.754Z,765.00
2022-10-10T13:09:38.714Z,826.88
2022-10-10T13:10:38.703Z,781.88
2022-10-10T13:11:38.689Z,641.25
2022-10-10T13:12:38.688Z,601.88
2022-10-10T13:13:38.666Z,601.88
2022-10-10T13:28:18.285Z,368634.38
2022-10-10T13:29:18.257Z,368634.38
2022-10-10T13:30:18.222Z,368634.38
2022-10-10T13:31:18.217Z,368634.38
2022-10-10T13:32:18.179Z,368634.38
2022-10-10T13:33:18.153Z,368634.38
2022-10-10T13:34:18.144Z,368634.38
2022-10-10T13:35:18.151Z,368634.38
2022-10-10T13:36:18.118Z,368634.38
2022-10-10T13:37:18.105Z,368634.38
2022-10-10T13:38:18.089Z,368634.38
2022-10-10T13:39:18.073Z,368634.38
2022-10-10T13:40:18.063Z,368634.38
2022-10-10T13:41:18.042Z,368634.38
2022-10-10T13:42:18.034Z,368634.38
2022-10-10T13:43:18.006Z,368634.38
2022-10-10T13:52:26.013Z,368634.38
2022-10-10T13:53:25.981Z,368634.38
2022-10-10T13:54:26.009Z,368634.38
2022-10-10T13:55:25.972Z,368634.38
2022-10-10T13:56:25.950Z,368634.38
2022-10-10T13:57:25.929Z,368634.38
2022-10-10T13:58:25.927Z,368634.38
2022-10-10T13:59:25.904Z,368634.38
2022-10-10T14:00:25.880Z,368634.38
2022-10-10T14:01:25.951Z,368634.38
2022-10-10T14:02:25.852Z,368634.38
2022-10-10T14:03:25.842Z,368634.38
2022-10-10T14:04:25.833Z,368634.38
2022-10-10T14:05:25.813Z,368634.38
2022-10-10T14:06:25.805Z,368634.38
2022-10-10T14:07:25.790Z,368634.38
2022-10-10T14:08:25.801Z,368634.38
2022-10-10T14:09:25.791Z,368634.38
2022-10-10T14:10:25.736Z,368634.38
2022-10-10T14:11:25.736Z,368634.38
2022-10-10T14:12:25.707Z,368634.38
2022-10-10T14:13:25.701Z,368634.38
2022-10-10T14:14:25.695Z,368634.38
2022-10-10T14:15:25.698Z,368634.38
2022-10-10T14:16:25.676Z,368634.38
2022-10-10T14:17:25.649Z,368634.38
2022-10-10T14:18:25.642Z,368634.38
2022-10-10T14:19:25.624Z,368634.38
2022-10-10T14:20:25.618Z,368634.38
2022-10-10T14:21:25.598Z,368634.38
2022-10-10T14:22:25.583Z,368634.38
2022-10-10T14:23:25.558Z,368634.38
2022-10-10T14:27:36.975Z,1440.00
2022-10-10T14:28:33.456Z,855.00
